createdAt,value
2022-11-21T00:00:46.022Z,6.80
2022-11-21T00:03:13.190Z,5.05
2022-11-21T00:05:42.246Z,4.82
2022-11-21T00:08:10.534Z,5.68
2022-11-21T00:10:38.238Z,5.68
2022-11-21T00:13:05.805Z,5.32
2022-11-21T00:15:33.470Z,5.43
2022-11-21T00:18:02.750Z,5.85
2022-11-21T00:20:29.799Z,5.68
2022-11-21T00:22:56.376Z,5.85
2022-11-21T00:25:22.994Z,4.85
2022-11-21T00:27:49.655Z,5.75
2022-11-21T00:30:16.171Z,5.22
2022-11-21T00:32:42.785Z,5.13
2022-11-21T00:35:09.380Z,5.15
2022-11-21T00:37:36.158Z,5.18
2022-11-21T00:40:03.038Z,4.78
2022-11-21T00:42:29.673Z,6.03
2022-11-21T00:44:56.304Z,5.22
2022-11-21T00:47:22.965Z,5.65
2022-11-21T00:49:49.776Z,5.50
2022-11-21T00:52:17.280Z,5.10
2022-11-21T00:54:43.858Z,5.25
2022-11-21T00:57:11.154Z,4.65
2022-11-21T00:59:37.790Z,5.28
2022-11-21T01:02:05.356Z,5.00
2022-11-21T01:04:33.317Z,4.63
2022-11-21T01:06:59.901Z,5.28
2022-11-21T01:09:28.395Z,4.75
2022-11-21T01:11:56.335Z,5.57
2022-11-21T01:14:23.553Z,4.72
2022-11-21T01:16:50.490Z,5.20
2022-11-21T01:19:17.047Z,5.40
2022-11-21T01:21:43.710Z,5.45
2022-11-21T01:24:12.250Z,5.28
2022-11-21T01:26:39.291Z,6.35
2022-11-21T01:29:07.022Z,4.88
2022-11-21T01:31:33.814Z,4.93
2022-11-21T01:34:01.312Z,5.47
2022-11-21T01:36:30.607Z,4.45
2022-11-21T01:38:59.905Z,6.40
2022-11-21T01:41:33.672Z,5.03
2022-11-21T01:44:01.919Z,5.25
2022-11-21T01:46:28.677Z,5.55
2022-11-21T01:49:17.931Z,5.82
2022-11-21T01:51:58.161Z,5.38
2022-11-21T01:54:33.082Z,4.63
2022-11-21T01:57:20.588Z,6.20
2022-11-21T01:59:53.336Z,5.20
2022-11-21T02:02:23.272Z,5.60
2022-11-21T02:04:52.009Z,4.85
2022-11-21T02:07:21.263Z,4.72
2022-11-21T02:09:52.960Z,5.03
2022-11-21T02:12:43.475Z,4.63
2022-11-21T02:15:11.198Z,4.72
2022-11-21T02:17:37.945Z,5.45
2022-11-21T02:20:14.132Z,5.25
2022-11-21T02:23:09.017Z,4.47
2022-11-21T02:25:38.185Z,6.10
2022-11-21T02:28:25.155Z,5.15
2022-11-21T02:30:51.755Z,6.53
2022-11-21T02:33:18.318Z,5.88
2022-11-21T02:35:44.988Z,4.43
2022-11-21T02:38:20.920Z,5.03
2022-11-21T02:40:57.364Z,6.18
2022-11-21T02:43:28.577Z,5.07
2022-11-21T02:45:56.140Z,4.35
2022-11-21T02:48:22.647Z,5.78
2022-11-21T02:50:49.196Z,5.80
2022-11-21T02:53:17.979Z,5.63
2022-11-21T02:55:45.398Z,5.55
2022-11-21T02:58:12.456Z,6.15
2022-11-21T03:00:40.814Z,6.35
2022-11-21T03:03:07.791Z,5.45
2022-11-21T03:05:34.482Z,6.30
2022-11-21T03:08:01.084Z,5.07
2022-11-21T03:10:27.742Z,5.15
2022-11-21T03:13:00.754Z,5.57
2022-11-21T03:15:33.007Z,5.97
2022-11-21T03:18:02.622Z,6.03
2022-11-21T03:20:34.511Z,5.93
2022-11-21T03:23:01.808Z,6.32
2022-11-21T03:25:28.705Z,5.50
2022-11-21T03:27:55.315Z,6.75
2022-11-21T03:30:23.829Z,6.60
2022-11-21T03:32:50.805Z,6.60
2022-11-21T03:35:17.418Z,5.95
2022-11-21T03:37:44.105Z,5.50
2022-11-21T03:40:11.630Z,6.28
2022-11-21T03:42:38.320Z,6.32
2022-11-21T03:45:05.408Z,6.07
2022-11-21T03:47:33.654Z,6.15
2022-11-21T03:50:00.266Z,5.60
2022-11-21T03:52:26.975Z,7.13
2022-11-21T03:54:53.719Z,6.32
2022-11-21T03:57:20.313Z,6.95
2022-11-21T03:59:46.990Z,6.32
2022-11-21T04:02:13.626Z,7.38
2022-11-21T04:04:40.578Z,6.07
2022-11-21T04:07:07.204Z,6.70
2022-11-21T04:09:33.761Z,5.68
2022-11-21T04:12:03.671Z,6.97
2022-11-21T04:14:33.184Z,6.47
2022-11-21T04:16:59.848Z,7.28
2022-11-21T04:19:26.574Z,6.28
2022-11-21T04:21:53.051Z,7.22
2022-11-21T04:24:19.570Z,6.97
2022-11-21T04:26:46.091Z,6.40
2022-11-21T04:29:12.673Z,7.20
2022-11-21T04:31:39.224Z,7.55
2022-11-21T04:34:06.059Z,7.72
2022-11-21T04:36:32.686Z,7.68
2022-11-21T04:38:59.333Z,7.90
2022-11-21T04:41:26.574Z,7.93
2022-11-21T04:43:53.226Z,7.00
2022-11-21T04:46:19.782Z,6.38
2022-11-21T04:48:46.334Z,6.07
2022-11-21T04:51:13.055Z,7.32
2022-11-21T04:53:42.922Z,7.53
2022-11-21T04:56:10.234Z,6.32
2022-11-21T04:58:36.940Z,7.53
2022-11-21T05:01:08.702Z,7.65
2022-11-21T05:03:36.149Z,7.00
2022-11-21T05:06:02.714Z,8.25
2022-11-21T05:08:29.292Z,8.00
2022-11-21T05:11:14.177Z,8.68
2022-11-21T05:13:41.040Z,7.72
2022-11-21T05:16:07.549Z,9.30
2022-11-21T05:18:34.278Z,8.13
2022-11-21T05:21:01.617Z,7.32
2022-11-21T05:23:28.225Z,8.13
2022-11-21T05:25:55.554Z,7.93
2022-11-21T05:28:22.234Z,8.52
2022-11-21T05:30:48.914Z,7.50
2022-11-21T05:33:15.476Z,7.78
2022-11-21T05:35:43.623Z,8.10
2022-11-21T05:38:10.556Z,8.10
2022-11-21T05:40:37.070Z,8.50
2022-11-21T05:43:22.122Z,9.25
2022-11-21T05:45:50.192Z,8.45
2022-11-21T05:48:17.740Z,8.15
2022-11-21T05:50:48.342Z,7.65
2022-11-21T05:53:15.378Z,7.55
2022-11-21T05:55:41.944Z,8.95
2022-11-21T05:58:10.657Z,9.52
2022-11-21T06:00:37.658Z,9.40
2022-11-21T06:03:23.586Z,9.85
2022-11-21T06:05:50.356Z,10.18
2022-11-21T06:08:17.549Z,8.40
2022-11-21T06:10:44.721Z,9.05
2022-11-21T06:13:21.999Z,10.50
2022-11-21T06:15:59.933Z,9.77
2022-11-21T06:18:27.530Z,10.07
2022-11-21T06:20:54.714Z,10.50
2022-11-21T06:23:21.275Z,8.95
2022-11-21T06:25:47.759Z,9.63
2022-11-21T06:28:14.289Z,10.48
2022-11-21T06:30:40.917Z,10.20
2022-11-21T06:33:07.615Z,10.07
2022-11-21T06:35:37.962Z,10.20
2022-11-21T06:38:04.857Z,10.23
2022-11-21T06:40:31.332Z,9.23
2022-11-21T06:42:58.009Z,11.55
2022-11-21T06:45:24.574Z,9.25
2022-11-21T06:47:51.170Z,10.43
2022-11-21T06:50:18.111Z,11.35
2022-11-21T06:52:44.855Z,11.05
2022-11-21T06:55:11.623Z,11.32
2022-11-21T06:57:38.201Z,11.25
2022-11-21T07:00:05.807Z,9.02
2022-11-21T07:02:32.571Z,9.40
2022-11-21T07:04:59.201Z,12.50
2022-11-21T07:07:25.790Z,10.35
2022-11-21T07:09:52.274Z,11.15
2022-11-21T07:12:37.326Z,10.75
2022-11-21T07:15:04.372Z,10.50
2022-11-21T07:17:30.832Z,10.73
2022-11-21T07:19:57.387Z,12.23
2022-11-21T07:22:23.936Z,12.27
2022-11-21T07:24:50.690Z,11.68
2022-11-21T07:27:17.273Z,12.30
2022-11-21T07:29:43.885Z,10.77
2022-11-21T07:32:10.629Z,9.35
2022-11-21T07:34:37.865Z,9.32
2022-11-21T07:37:05.411Z,10.27
2022-11-21T07:39:32.308Z,10.50
2022-11-21T07:41:58.829Z,8.63
2022-11-21T07:44:25.363Z,11.20
2022-11-21T07:46:55.738Z,9.63
2022-11-21T07:49:22.994Z,10.68
2022-11-21T07:51:50.160Z,11.10
2022-11-21T07:54:16.755Z,9.20
2022-11-21T07:56:43.376Z,11.65
2022-11-21T07:59:10.100Z,11.35
2022-11-21T08:01:39.231Z,13.55
2022-11-21T08:04:09.298Z,10.27
2022-11-21T08:06:35.939Z,13.05
2022-11-21T08:09:02.845Z,12.75
2022-11-21T08:11:30.841Z,10.65
2022-11-21T08:13:58.675Z,10.82
2022-11-21T08:16:27.926Z,11.00
2022-11-21T08:18:54.507Z,12.88
2022-11-21T08:21:21.065Z,11.85
2022-11-21T08:23:47.840Z,11.07
2022-11-21T08:26:14.559Z,9.93
2022-11-21T08:28:41.113Z,9.65
2022-11-21T08:31:07.670Z,11.15
2022-11-21T08:33:34.310Z,11.00
2022-11-21T08:36:05.438Z,10.93
2022-11-21T08:38:33.501Z,10.48
2022-11-21T08:41:18.560Z,10.52
2022-11-21T08:43:45.395Z,10.98
2022-11-21T08:46:11.922Z,10.60
2022-11-21T08:48:38.543Z,9.75
2022-11-21T08:51:05.186Z,9.65
2022-11-21T08:53:31.934Z,8.65
2022-11-21T08:56:03.767Z,10.00
2022-11-21T08:58:31.046Z,9.95
2022-11-21T09:00:59.413Z,9.60
2022-11-21T09:03:30.867Z,9.23
2022-11-21T09:05:59.306Z,9.93
2022-11-21T09:08:26.415Z,9.20
2022-11-21T09:10:53.045Z,9.07
2022-11-21T09:13:19.825Z,9.18
2022-11-21T09:16:05.063Z,8.85
2022-11-21T09:18:31.913Z,10.63
2022-11-21T09:20:59.088Z,9.05
2022-11-21T09:23:26.008Z,11.10
2022-11-21T09:25:52.814Z,10.82
2022-11-21T09:28:20.253Z,9.68
2022-11-21T09:30:47.151Z,10.70
2022-11-21T09:33:16.732Z,9.73
2022-11-21T09:35:43.669Z,11.52
2022-11-21T09:38:10.535Z,11.88
2022-11-21T09:40:43.579Z,10.73
2022-11-21T09:43:45.106Z,10.48
2022-11-21T09:46:16.286Z,9.00
2022-11-21T09:48:45.843Z,10.88
2022-11-21T09:51:14.950Z,10.73
2022-11-21T09:54:05.546Z,9.50
2022-11-21T09:56:36.887Z,8.88
2022-11-21T09:59:25.664Z,10.05
2022-11-21T10:01:52.431Z,9.32
2022-11-21T10:04:19.090Z,10.43
2022-11-21T10:07:35.380Z,9.82
2022-11-21T10:10:33.349Z,9.63
2022-11-21T10:13:31.029Z,9.95
2022-11-21T10:16:09.789Z,9.85
2022-11-21T10:18:52.712Z,10.18
2022-11-21T10:21:52.266Z,10.23
2022-11-21T10:25:03.342Z,9.93
2022-11-21T10:27:52.498Z,12.57
2022-11-21T10:30:21.037Z,10.98
2022-11-21T10:32:51.579Z,12.48
2022-11-21T10:35:22.641Z,10.52
2022-11-21T10:38:01.583Z,10.68
2022-11-21T10:40:32.034Z,11.73
2022-11-21T10:43:26.211Z,12.77
2022-11-21T10:45:53.639Z,11.20
2022-11-21T10:48:20.467Z,12.95
2022-11-21T10:51:06.183Z,11.15
2022-11-21T10:53:51.409Z,11.82
2022-11-21T10:56:21.365Z,11.38
2022-11-21T10:58:59.238Z,14.02
2022-11-21T11:01:30.809Z,12.18
2022-11-21T11:04:27.301Z,12.73
2022-11-21T11:07:00.036Z,12.98
2022-11-21T11:09:32.574Z,11.43
2022-11-21T11:12:46.939Z,9.90
2022-11-21T11:15:22.925Z,12.45
2022-11-21T11:17:52.679Z,11.02
2022-11-21T11:20:36.926Z,13.20
2022-11-21T11:23:22.377Z,13.65
2022-11-21T11:26:00.271Z,11.95
2022-11-21T11:28:35.144Z,12.25
2022-11-21T11:31:03.081Z,15.63
2022-11-21T11:33:34.252Z,13.13
2022-11-21T11:36:11.138Z,13.40
2022-11-21T11:38:38.154Z,12.05
2022-11-21T11:41:17.295Z,11.98
2022-11-21T11:44:19.958Z,12.52
2022-11-21T11:47:23.518Z,12.38
2022-11-21T11:50:13.632Z,12.35
2022-11-21T11:52:49.847Z,11.40
2022-11-21T11:55:26.674Z,12.60
2022-11-21T11:57:56.453Z,10.95
2022-11-21T12:00:42.163Z,12.35
2022-11-21T12:03:19.020Z,11.57
2022-11-21T12:05:58.478Z,10.68
2022-11-21T12:08:44.998Z,11.98
2022-11-21T12:11:39.547Z,10.48
2022-11-21T12:14:48.614Z,10.52
2022-11-21T12:17:19.694Z,10.70
2022-11-21T12:19:48.221Z,11.35
2022-11-21T12:22:14.948Z,10.48
2022-11-21T12:24:43.339Z,10.00
2022-11-21T12:27:16.232Z,10.70
2022-11-21T12:29:55.205Z,9.55
2022-11-21T12:32:47.101Z,10.60
2022-11-21T12:36:14.137Z,9.43
2022-11-21T12:39:13.613Z,8.65
2022-11-21T12:42:23.300Z,9.23
2022-11-21T12:45:18.134Z,9.52
2022-11-21T12:48:35.607Z,8.63
2022-11-21T12:51:52.669Z,9.27
2022-11-21T12:54:49.721Z,9.93
2022-11-21T12:57:19.040Z,10.27
2022-11-21T13:00:07.509Z,8.32
2022-11-21T13:03:18.848Z,9.30
2022-11-21T13:05:52.130Z,10.00
2022-11-21T13:08:31.821Z,9.88
2022-11-21T13:11:59.789Z,10.63
2022-11-21T13:14:57.390Z,11.68
2022-11-21T13:17:36.015Z,8.65
2022-11-21T13:20:05.680Z,8.90
2022-11-21T13:22:35.172Z,8.85
2022-11-21T13:25:10.050Z,7.93
2022-11-21T13:27:43.018Z,8.18
2022-11-21T13:30:12.612Z,9.00
2022-11-21T13:32:45.824Z,9.13
2022-11-21T13:35:21.522Z,9.35
2022-11-21T13:38:06.209Z,9.43
2022-11-21T13:40:38.257Z,10.80
2022-11-21T13:43:32.056Z,9.52
2022-11-21T13:45:56.428Z,8.90
2022-11-21T13:48:34.450Z,8.93
2022-11-21T13:51:32.765Z,8.00
2022-11-21T13:54:24.267Z,9.50
2022-11-21T13:57:08.937Z,9.13
2022-11-21T13:59:50.891Z,7.93
2022-11-21T14:02:28.524Z,8.30
2022-11-21T14:05:01.320Z,7.30
2022-11-21T14:07:30.892Z,6.95
2022-11-21T14:10:00.538Z,9.05
2022-11-21T14:12:35.209Z,8.15
2022-11-21T14:15:03.816Z,7.28
2022-11-21T14:18:02.948Z,7.78
2022-11-21T14:20:49.326Z,6.82
2022-11-21T14:23:18.498Z,7.50
2022-11-21T14:25:53.843Z,6.65
2022-11-21T14:28:32.419Z,7.85
2022-11-21T14:31:10.394Z,7.07
2022-11-21T14:33:42.104Z,5.90
2022-11-21T14:36:12.968Z,6.60
2022-11-21T14:39:02.191Z,5.65
2022-11-21T14:41:37.010Z,6.03
2022-11-21T14:44:04.066Z,5.35
2022-11-21T14:46:36.266Z,5.70
2022-11-21T14:49:19.737Z,5.90
2022-11-21T14:51:59.755Z,5.22
2022-11-21T14:54:30.852Z,7.72
2022-11-21T14:57:06.142Z,8.07
2022-11-21T14:59:39.962Z,8.68
2022-11-21T15:02:16.937Z,10.05
2022-11-21T15:04:44.831Z,10.13
2022-11-21T15:07:25.692Z,8.73
2022-11-21T15:12:48.331Z,9.48
2022-11-21T15:15:20.987Z,9.00
2022-11-21T15:18:27.333Z,7.50
2022-11-21T15:20:57.015Z,8.40
2022-11-21T15:23:31.052Z,8.48
2022-11-21T15:26:01.342Z,6.55
2022-11-21T15:28:30.039Z,7.05
2022-11-21T15:31:20.383Z,6.53
2022-11-21T15:34:19.294Z,5.57
2022-11-21T15:36:40.669Z,6.53
2022-11-21T15:39:18.875Z,6.63
2022-11-21T15:41:46.112Z,5.05
2022-11-21T15:44:12.627Z,5.20
2022-11-21T15:46:42.315Z,4.90
2022-11-21T15:52:10.063Z,4.43
2022-11-21T15:54:36.936Z,4.22
2022-11-21T15:57:03.528Z,4.03
2022-11-21T15:59:30.948Z,3.90
2022-11-21T16:01:57.779Z,3.22
2022-11-21T16:04:26.133Z,3.65
2022-11-21T16:06:53.991Z,3.83
2022-11-21T16:09:20.857Z,3.42
2022-11-21T16:11:47.380Z,3.20
2022-11-21T16:14:16.293Z,4.15
2022-11-21T16:16:44.262Z,4.45
2022-11-21T16:19:12.044Z,2.90
2022-11-21T16:21:38.711Z,3.90
2022-11-21T16:24:05.609Z,4.70
2022-11-21T16:26:33.436Z,5.32
2022-11-21T16:29:01.389Z,3.60
2022-11-21T16:31:30.403Z,3.78
2022-11-21T16:33:58.615Z,3.53
2022-11-21T16:36:27.706Z,3.95
2022-11-21T16:38:54.902Z,4.43
2022-11-21T16:41:22.617Z,4.00
2022-11-21T16:43:51.310Z,4.15
2022-11-21T16:46:20.107Z,3.72
2022-11-21T16:48:47.581Z,3.72
2022-11-21T16:51:20.714Z,3.63
2022-11-21T16:53:49.004Z,3.35
2022-11-21T16:56:16.474Z,3.55
2022-11-21T16:58:43.624Z,3.90
2022-11-21T17:01:12.377Z,3.67
2022-11-21T17:03:40.181Z,3.75
2022-11-21T17:06:07.951Z,3.90
2022-11-21T17:08:35.642Z,3.92
2022-11-21T17:11:28.944Z,3.15
2022-11-21T17:13:58.825Z,2.83
2022-11-21T17:16:25.769Z,3.40
2022-11-21T17:18:56.287Z,4.13
2022-11-21T17:21:25.216Z,3.75
2022-11-21T17:23:52.313Z,3.80
2022-11-21T17:26:21.355Z,3.42
2022-11-21T17:28:55.857Z,3.05
2022-11-21T17:31:22.489Z,3.77
2022-11-21T17:33:51.738Z,2.92
2022-11-21T17:36:20.690Z,3.15
2022-11-21T17:38:47.854Z,3.30
2022-11-21T17:41:17.432Z,2.90
2022-11-21T17:43:44.552Z,2.95
2022-11-21T17:46:19.025Z,3.78
2022-11-21T17:48:52.889Z,3.67
2022-11-21T17:51:22.494Z,3.60
2022-11-21T17:53:50.791Z,3.20
2022-11-21T17:56:23.528Z,3.58
2022-11-21T17:58:51.000Z,3.45
2022-11-21T18:01:20.893Z,2.42
2022-11-21T18:03:58.687Z,3.13
2022-11-21T18:06:32.290Z,2.75
2022-11-21T18:08:58.889Z,2.92
2022-11-21T18:11:28.447Z,3.67
2022-11-21T18:13:55.122Z,3.00
2022-11-21T18:16:23.763Z,3.65
2022-11-21T18:18:51.496Z,3.25
2022-11-21T18:21:20.491Z,3.92
2022-11-21T18:23:47.637Z,4.03
2022-11-21T18:26:22.658Z,4.05
2022-11-21T18:29:01.664Z,4.60
2022-11-21T18:31:34.228Z,3.85
2022-11-21T18:34:02.538Z,4.30
2022-11-21T18:36:31.730Z,3.67
2022-11-21T18:39:05.966Z,3.67
2022-11-21T18:41:36.693Z,4.00
2022-11-21T18:44:05.157Z,4.45
2022-11-21T18:46:34.123Z,3.97
2022-11-21T18:49:04.862Z,5.18
2022-11-21T18:51:33.365Z,4.93
2022-11-21T18:54:10.811Z,5.15
2022-11-21T18:56:39.058Z,4.05
2022-11-21T18:59:06.999Z,3.65
2022-11-21T19:01:35.470Z,3.67
2022-11-21T19:04:02.490Z,4.03
2022-11-21T19:06:29.559Z,3.28
2022-11-21T19:08:57.662Z,3.92
2022-11-21T19:11:27.158Z,3.40
2022-11-21T19:13:55.904Z,3.25
2022-11-21T19:16:25.201Z,3.25
2022-11-21T19:21:41.406Z,3.67
2022-11-21T19:24:12.941Z,3.60
2022-11-21T19:26:39.709Z,4.95
2022-11-21T19:29:06.522Z,3.97
2022-11-21T19:31:34.221Z,3.88
2022-11-21T19:34:03.245Z,4.65
2022-11-21T19:36:30.479Z,3.67
2022-11-21T19:38:57.173Z,3.13
2022-11-21T19:41:28.242Z,3.70
2022-11-21T19:43:57.681Z,3.33
2022-11-21T19:46:26.815Z,3.70
2022-11-21T19:48:55.832Z,3.05
2022-11-21T19:51:24.956Z,3.20
2022-11-21T19:53:51.632Z,3.30
2022-11-21T19:56:20.894Z,4.22
2022-11-21T19:58:48.742Z,3.25
2022-11-21T20:01:18.095Z,2.72
2022-11-21T20:03:46.703Z,2.80
2022-11-21T20:06:21.986Z,2.72
2022-11-21T20:08:50.862Z,3.00
2022-11-21T20:11:17.401Z,2.83
2022-11-21T20:13:45.581Z,2.72
2022-11-21T20:16:29.307Z,3.15
2022-11-21T20:18:59.258Z,2.63
2022-11-21T20:21:26.230Z,3.22
2022-11-21T20:23:52.921Z,3.35
2022-11-21T20:26:20.937Z,3.28
2022-11-21T20:28:48.632Z,3.85
2022-11-21T20:31:18.637Z,3.17
2022-11-21T20:33:47.263Z,2.67
2022-11-21T20:36:21.283Z,3.33
2022-11-21T20:38:54.443Z,2.97
2022-11-21T20:41:23.127Z,2.15
2022-11-21T20:44:34.666Z,3.05
2022-11-21T20:46:41.215Z,3.20
2022-11-21T20:49:08.170Z,2.92
2022-11-21T20:53:06.337Z,2.42
2022-11-21T20:54:21.455Z,2.33
2022-11-21T20:56:48.301Z,2.10
2022-11-21T20:59:14.973Z,2.47
2022-11-21T21:01:42.141Z,2.92
2022-11-21T21:04:12.125Z,2.25
2022-11-21T21:06:39.460Z,2.15
2022-11-21T21:09:06.109Z,2.10
2022-11-21T21:14:19.359Z,2.20
2022-11-21T21:16:45.973Z,1.92
2022-11-21T21:19:12.683Z,2.35
2022-11-21T21:21:41.304Z,1.92
2022-11-21T21:24:09.885Z,1.92
2022-11-21T21:26:45.246Z,2.15
2022-11-21T21:31:42.834Z,2.22
2022-11-21T21:34:10.655Z,2.25
2022-11-21T21:36:37.192Z,1.85
2022-11-21T21:39:03.939Z,1.73
2022-11-21T21:41:31.363Z,2.20
2022-11-21T21:43:58.625Z,2.70
2022-11-21T21:46:27.146Z,1.65
2022-11-21T21:48:56.490Z,2.22
2022-11-21T21:51:28.162Z,1.77
2022-11-21T21:53:56.683Z,2.35
2022-11-21T21:56:24.967Z,1.80
2022-11-21T21:58:51.699Z,1.85
2022-11-21T22:01:23.537Z,2.30
2022-11-21T22:03:59.128Z,2.30
2022-11-21T22:06:26.133Z,1.95
2022-11-21T22:08:54.254Z,2.13
2022-11-21T22:11:23.474Z,1.88
2022-11-21T22:13:55.897Z,1.40
2022-11-21T22:16:22.938Z,1.70
2022-11-21T22:18:49.614Z,1.98
2022-11-21T22:21:19.394Z,1.80
2022-11-21T22:24:09.729Z,1.60
2022-11-21T22:26:33.310Z,2.28
2022-11-21T22:28:59.818Z,2.15
2022-11-21T22:31:29.962Z,1.50
2022-11-21T22:33:57.264Z,2.58
2022-11-21T22:36:23.996Z,2.95
2022-11-21T22:38:53.724Z,1.75
2022-11-21T22:41:25.756Z,1.63
2022-11-21T22:43:57.635Z,1.90
2022-11-21T22:46:26.898Z,1.60
2022-11-21T22:48:53.492Z,2.03
2022-11-21T22:51:25.544Z,1.95
2022-11-21T22:53:52.884Z,1.20
2022-11-21T22:56:21.794Z,1.48
2022-11-21T22:58:49.322Z,1.20
2022-11-21T23:01:18.786Z,1.42
2022-11-21T23:03:46.097Z,1.23
2022-11-21T23:06:14.830Z,1.65
2022-11-21T23:08:41.771Z,1.83
2022-11-21T23:11:13.729Z,1.92
2022-11-21T23:13:42.551Z,1.80
2022-11-21T23:16:10.352Z,1.27
2022-11-21T23:18:37.109Z,1.58
2022-11-21T23:21:04.574Z,2.28
2022-11-21T23:23:31.286Z,1.42
2022-11-21T23:25:57.810Z,1.60
2022-11-21T23:28:24.448Z,1.30
2022-11-21T23:30:51.125Z,1.10
2022-11-21T23:33:18.574Z,1.38
2022-11-21T23:35:46.183Z,1.70
2022-11-21T23:38:14.782Z,1.10
2022-11-21T23:40:41.660Z,1.17
2022-11-21T23:43:08.196Z,1.30
2022-11-21T23:45:34.742Z,0.93
2022-11-21T23:48:01.621Z,1.00
2022-11-21T23:50:28.158Z,1.15
2022-11-21T23:52:54.808Z,1.17
2022-11-21T23:55:21.312Z,1.00
2022-11-21T23:57:49.127Z,0.98
